sensor_id;sensor_type;location;lat;lon;timestamp;P1;durP1;ratioP1;P2;durP2;ratioP2
3259;SDS011;68938;48.150;14.004;2023-11-18T00:00:10;12.17;;;10.33;;
3259;SDS011;68938;48.150;14.004;2023-11-18T00:02:38;16.33;;;10.10;;
3259;SDS011;68938;48.150;14.004;2023-11-18T00:05:06;14.50;;;11.20;;
3259;SDS011;68938;48.150;14.004;2023-11-18T00:07:34;10.93;;;9.80;;
3259;SDS011;68938;48.150;14.004;2023-11-18T00:10:01;11.47;;;9.27;;
3259;SDS011;68938;48.150;14.004;2023-11-18T00:12:28;12.10;;;10.10;;
3259;SDS011;68938;48.150;14.004;2023-11-18T00:14:55;13.13;;;10.33;;
3259;SDS011;68938;48.150;14.004;2023-11-18T00:17:22;12.00;;;10.47;;
3259;SDS011;68938;48.150;14.004;2023-11-18T00:19:49;13.10;;;11.13;;
3259;SDS011;68938;48.150;14.004;2023-11-18T00:22:16;12.90;;;9.90;;
3259;SDS011;68938;48.150;14.004;2023-11-18T00:24:43;11.83;;;10.73;;
3259;SDS011;68938;48.150;14.004;2023-11-18T00:27:10;14.10;;;11.20;;
3259;SDS011;68938;48.150;14.004;2023-11-18T00:29:36;13.43;;;11.83;;
3259;SDS011;68938;48.150;14.004;2023-11-18T00:32:03;13.30;;;10.37;;
3259;SDS011;68938;48.150;14.004;2023-11-18T00:34:31;11.87;;;10.53;;
3259;SDS011;68938;48.150;14.004;2023-11-18T00:36:58;12.20;;;10.90;;
3259;SDS011;68938;48.150;14.004;2023-11-18T00:39:25;12.73;;;9.33;;
3259;SDS011;68938;48.150;14.004;2023-11-18T00:41:52;12.50;;;10.17;;
3259;SDS011;68938;48.150;14.004;2023-11-18T00:44:20;11.90;;;9.30;;
3259;SDS011;68938;48.150;14.004;2023-11-18T00:46:47;12.30;;;11.00;;
3259;SDS011;68938;48.150;14.004;2023-11-18T00:49:14;8.87;;;7.53;;
3259;SDS011;68938;48.150;14.004;2023-11-18T00:51:40;9.80;;;7.33;;
3259;SDS011;68938;48.150;14.004;2023-11-18T00:54:07;7.03;;;6.43;;
3259;SDS011;68938;48.150;14.004;2023-11-18T00:56:34;11.27;;;7.80;;
3259;SDS011;68938;48.150;14.004;2023-11-18T00:59:01;7.80;;;7.10;;
3259;SDS011;68938;48.150;14.004;2023-11-18T01:01:29;7.87;;;7.00;;
3259;SDS011;68938;48.150;14.004;2023-11-18T01:03:56;7.10;;;6.50;;
3259;SDS011;68938;48.150;14.004;2023-11-18T01:06:23;6.90;;;6.30;;
3259;SDS011;68938;48.150;14.004;2023-11-18T01:08:50;18.23;;;8.00;;
3259;SDS011;68938;48.150;14.004;2023-11-18T01:11:17;7.33;;;6.07;;
3259;SDS011;68938;48.150;14.004;2023-11-18T01:13:45;7.70;;;7.00;;
3259;SDS011;68938;48.150;14.004;2023-11-18T01:16:12;7.33;;;6.73;;
3259;SDS011;68938;48.150;14.004;2023-11-18T01:18:39;6.73;;;6.23;;
3259;SDS011;68938;48.150;14.004;2023-11-18T01:21:07;7.30;;;6.60;;
3259;SDS011;68938;48.150;14.004;2023-11-18T01:23:34;7.10;;;6.10;;
3259;SDS011;68938;48.150;14.004;2023-11-18T01:26:03;7.67;;;6.87;;
3259;SDS011;68938;48.150;14.004;2023-11-18T01:28:31;6.07;;;5.57;;
3259;SDS011;68938;48.150;14.004;2023-11-18T01:31:01;7.73;;;6.90;;
3259;SDS011;68938;48.150;14.004;2023-11-18T01:33:28;8.40;;;6.97;;
3259;SDS011;68938;48.150;14.004;2023-11-18T01:35:55;7.73;;;6.93;;
3259;SDS011;68938;48.150;14.004;2023-11-18T01:38:22;8.47;;;7.23;;
3259;SDS011;68938;48.150;14.004;2023-11-18T01:40:49;10.47;;;8.47;;
3259;SDS011;68938;48.150;14.004;2023-11-18T01:43:16;8.10;;;7.30;;
3259;SDS011;68938;48.150;14.004;2023-11-18T01:45:43;7.77;;;7.07;;
3259;SDS011;68938;48.150;14.004;2023-11-18T01:48:09;8.40;;;7.60;;
3259;SDS011;68938;48.150;14.004;2023-11-18T01:50:37;8.03;;;6.93;;
3259;SDS011;68938;48.150;14.004;2023-11-18T01:53:06;10.17;;;7.87;;
3259;SDS011;68938;48.150;14.004;2023-11-18T01:55:33;9.23;;;8.33;;
3259;SDS011;68938;48.150;14.004;2023-11-18T01:58:00;8.80;;;7.90;;
3259;SDS011;68938;48.150;14.004;2023-11-18T02:00:28;8.87;;;7.67;;
3259;SDS011;68938;48.150;14.004;2023-11-18T02:02:55;9.63;;;8.80;;
3259;SDS011;68938;48.150;14.004;2023-11-18T02:05:23;9.30;;;7.63;;
3259;SDS011;68938;48.150;14.004;2023-11-18T02:07:50;12.20;;;7.13;;
3259;SDS011;68938;48.150;14.004;2023-11-18T02:10:17;13.50;;;8.90;;
3259;SDS011;68938;48.150;14.004;2023-11-18T02:12:46;10.37;;;8.20;;
3259;SDS011;68938;48.150;14.004;2023-11-18T02:15:22;10.10;;;7.87;;
3259;SDS011;68938;48.150;14.004;2023-11-18T02:17:49;9.30;;;8.03;;
3259;SDS011;68938;48.150;14.004;2023-11-18T02:20:19;10.17;;;7.50;;
3259;SDS011;68938;48.150;14.004;2023-11-18T02:22:47;8.23;;;7.40;;
3259;SDS011;68938;48.150;14.004;2023-11-18T02:25:17;8.20;;;7.50;;
3259;SDS011;68938;48.150;14.004;2023-11-18T02:27:45;8.03;;;7.33;;
3259;SDS011;68938;48.150;14.004;2023-11-18T02:30:12;11.67;;;8.67;;
3259;SDS011;68938;48.150;14.004;2023-11-18T02:32:55;8.07;;;7.37;;
3259;SDS011;68938;48.150;14.004;2023-11-18T02:38:31;7.63;;;7.03;;
3259;SDS011;68938;48.150;14.004;2023-11-18T02:41:06;7.80;;;7.20;;
3259;SDS011;68938;48.150;14.004;2023-11-18T02:43:38;8.07;;;7.20;;
3259;SDS011;68938;48.150;14.004;2023-11-18T02:46:10;7.47;;;6.50;;
3259;SDS011;68938;48.150;14.004;2023-11-18T02:48:38;8.90;;;7.10;;
3259;SDS011;68938;48.150;14.004;2023-11-18T02:51:05;7.73;;;6.90;;
3259;SDS011;68938;48.150;14.004;2023-11-18T02:53:32;8.43;;;7.57;;
3259;SDS011;68938;48.150;14.004;2023-11-18T02:55:59;8.03;;;7.17;;
3259;SDS011;68938;48.150;14.004;2023-11-18T02:58:26;8.63;;;7.77;;
3259;SDS011;68938;48.150;14.004;2023-11-18T03:00:53;7.83;;;7.23;;
3259;SDS011;68938;48.150;14.004;2023-11-18T03:03:20;7.40;;;6.70;;
3259;SDS011;68938;48.150;14.004;2023-11-18T03:05:47;6.07;;;5.57;;
3259;SDS011;68938;48.150;14.004;2023-11-18T03:08:14;7.70;;;6.90;;
3259;SDS011;68938;48.150;14.004;2023-11-18T03:10:41;7.57;;;6.87;;
3259;SDS011;68938;48.150;14.004;2023-11-18T03:13:08;7.37;;;6.77;;
3259;SDS011;68938;48.150;14.004;2023-11-18T03:15:35;7.63;;;6.83;;
3259;SDS011;68938;48.150;14.004;2023-11-18T03:18:02;6.47;;;5.87;;
3259;SDS011;68938;48.150;14.004;2023-11-18T03:20:29;7.13;;;6.47;;
3259;SDS011;68938;48.150;14.004;2023-11-18T03:22:55;7.77;;;6.60;;
3259;SDS011;68938;48.150;14.004;2023-11-18T03:25:26;11.43;;;6.63;;
3259;SDS011;68938;48.150;14.004;2023-11-18T03:27:53;8.83;;;6.00;;
3259;SDS011;68938;48.150;14.004;2023-11-18T03:30:20;5.00;;;4.60;;
3259;SDS011;68938;48.150;14.004;2023-11-18T03:32:47;8.07;;;6.50;;
3259;SDS011;68938;48.150;14.004;2023-11-18T03:35:14;6.27;;;5.77;;
3259;SDS011;68938;48.150;14.004;2023-11-18T03:37:41;6.27;;;5.67;;
3259;SDS011;68938;48.150;14.004;2023-11-18T03:40:10;6.93;;;6.30;;
3259;SDS011;68938;48.150;14.004;2023-11-18T03:42:43;5.83;;;5.23;;
3259;SDS011;68938;48.150;14.004;2023-11-18T03:45:10;6.80;;;6.20;;
3259;SDS011;68938;48.150;14.004;2023-11-18T03:47:37;6.13;;;5.53;;
3259;SDS011;68938;48.150;14.004;2023-11-18T03:50:05;5.73;;;5.27;;
3259;SDS011;68938;48.150;14.004;2023-11-18T03:52:32;6.13;;;5.57;;
3259;SDS011;68938;48.150;14.004;2023-11-18T03:54:59;6.60;;;5.63;;
3259;SDS011;68938;48.150;14.004;2023-11-18T03:57:26;6.70;;;6.20;;
3259;SDS011;68938;48.150;14.004;2023-11-18T03:59:53;5.23;;;4.70;;
3259;SDS011;68938;48.150;14.004;2023-11-18T04:02:20;5.67;;;5.17;;
3259;SDS011;68938;48.150;14.004;2023-11-18T04:04:48;6.40;;;5.90;;
3259;SDS011;68938;48.150;14.004;2023-11-18T04:07:15;6.67;;;6.17;;
3259;SDS011;68938;48.150;14.004;2023-11-18T04:09:42;9.30;;;6.30;;
3259;SDS011;68938;48.150;14.004;2023-11-18T04:12:09;8.37;;;5.87;;
3259;SDS011;68938;48.150;14.004;2023-11-18T04:14:37;6.73;;;6.23;;
3259;SDS011;68938;48.150;14.004;2023-11-18T04:17:04;7.03;;;6.33;;
3259;SDS011;68938;48.150;14.004;2023-11-18T04:19:31;7.27;;;6.53;;
3259;SDS011;68938;48.150;14.004;2023-11-18T04:21:58;7.40;;;6.60;;
3259;SDS011;68938;48.150;14.004;2023-11-18T04:24:25;7.23;;;6.53;;
3259;SDS011;68938;48.150;14.004;2023-11-18T04:26:52;7.20;;;6.50;;
3259;SDS011;68938;48.150;14.004;2023-11-18T04:29:19;6.90;;;5.97;;
3259;SDS011;68938;48.150;14.004;2023-11-18T04:31:46;6.83;;;6.00;;
3259;SDS011;68938;48.150;14.004;2023-11-18T04:34:13;8.00;;;7.20;;
3259;SDS011;68938;48.150;14.004;2023-11-18T04:36:42;11.90;;;7.93;;
3259;SDS011;68938;48.150;14.004;2023-11-18T04:39:09;6.50;;;5.90;;
3259;SDS011;68938;48.150;14.004;2023-11-18T04:41:36;7.50;;;6.70;;
3259;SDS011;68938;48.150;14.004;2023-11-18T04:44:03;7.70;;;7.00;;
3259;SDS011;68938;48.150;14.004;2023-11-18T04:46:31;8.07;;;7.37;;
3259;SDS011;68938;48.150;14.004;2023-11-18T04:48:58;7.60;;;6.70;;
3259;SDS011;68938;48.150;14.004;2023-11-18T04:51:25;9.03;;;7.63;;
3259;SDS011;68938;48.150;14.004;2023-11-18T04:53:52;7.67;;;6.97;;
3259;SDS011;68938;48.150;14.004;2023-11-18T04:56:18;7.20;;;6.40;;
3259;SDS011;68938;48.150;14.004;2023-11-18T04:58:46;9.10;;;6.70;;
3259;SDS011;68938;48.150;14.004;2023-11-18T05:01:13;7.70;;;6.97;;
3259;SDS011;68938;48.150;14.004;2023-11-18T05:03:41;7.80;;;7.10;;
3259;SDS011;68938;48.150;14.004;2023-11-18T05:06:08;7.43;;;6.73;;
3259;SDS011;68938;48.150;14.004;2023-11-18T05:08:35;7.50;;;6.80;;
3259;SDS011;68938;48.150;14.004;2023-11-18T05:11:02;7.27;;;6.57;;
3259;SDS011;68938;48.150;14.004;2023-11-18T05:13:29;7.77;;;7.07;;
3259;SDS011;68938;48.150;14.004;2023-11-18T05:15:56;7.10;;;6.40;;
3259;SDS011;68938;48.150;14.004;2023-11-18T05:18:23;6.30;;;5.80;;
3259;SDS011;68938;48.150;14.004;2023-11-18T05:20:50;7.30;;;6.60;;
3259;SDS011;68938;48.150;14.004;2023-11-18T05:23:17;8.10;;;7.30;;
3259;SDS011;68938;48.150;14.004;2023-11-18T05:25:44;7.10;;;6.43;;
3259;SDS011;68938;48.150;14.004;2023-11-18T05:28:11;8.20;;;7.40;;
3259;SDS011;68938;48.150;14.004;2023-11-18T05:30:40;7.33;;;6.63;;
3259;SDS011;68938;48.150;14.004;2023-11-18T05:33:08;7.50;;;6.80;;
3259;SDS011;68938;48.150;14.004;2023-11-18T05:35:35;7.10;;;6.40;;
3259;SDS011;68938;48.150;14.004;2023-11-18T05:38:02;7.10;;;6.30;;
3259;SDS011;68938;48.150;14.004;2023-11-18T05:40:29;7.93;;;6.83;;
3259;SDS011;68938;48.150;14.004;2023-11-18T05:42:56;6.93;;;6.20;;
3259;SDS011;68938;48.150;14.004;2023-11-18T05:45:23;6.23;;;5.73;;
3259;SDS011;68938;48.150;14.004;2023-11-18T05:47:50;6.27;;;5.70;;
3259;SDS011;68938;48.150;14.004;2023-11-18T05:50:17;8.00;;;7.20;;
3259;SDS011;68938;48.150;14.004;2023-11-18T05:52:44;6.37;;;5.77;;
3259;SDS011;68938;48.150;14.004;2023-11-18T05:55:11;6.33;;;5.83;;
3259;SDS011;68938;48.150;14.004;2023-11-18T05:57:38;6.03;;;5.50;;
3259;SDS011;68938;48.150;14.004;2023-11-18T06:00:05;5.50;;;5.00;;
3259;SDS011;68938;48.150;14.004;2023-11-18T06:02:32;6.50;;;5.97;;
3259;SDS011;68938;48.150;14.004;2023-11-18T06:04:59;5.50;;;4.80;;
3259;SDS011;68938;48.150;14.004;2023-11-18T06:07:26;4.93;;;4.60;;
3259;SDS011;68938;48.150;14.004;2023-11-18T06:09:53;6.10;;;5.60;;
3259;SDS011;68938;48.150;14.004;2023-11-18T06:12:20;6.33;;;5.50;;
3259;SDS011;68938;48.150;14.004;2023-11-18T06:14:47;5.57;;;5.00;;
3259;SDS011;68938;48.150;14.004;2023-11-18T06:17:14;6.50;;;5.97;;
3259;SDS011;68938;48.150;14.004;2023-11-18T06:19:41;5.77;;;5.20;;
3259;SDS011;68938;48.150;14.004;2023-11-18T06:22:08;5.30;;;4.83;;
3259;SDS011;68938;48.150;14.004;2023-11-18T06:24:35;5.40;;;4.90;;
3259;SDS011;68938;48.150;14.004;2023-11-18T06:27:02;5.60;;;5.10;;
3259;SDS011;68938;48.150;14.004;2023-11-18T06:29:29;5.90;;;5.40;;
3259;SDS011;68938;48.150;14.004;2023-11-18T06:31:56;6.93;;;6.33;;
3259;SDS011;68938;48.150;14.004;2023-11-18T06:34:23;6.30;;;5.70;;
3259;SDS011;68938;48.150;14.004;2023-11-18T06:36:49;7.23;;;6.53;;
3259;SDS011;68938;48.150;14.004;2023-11-18T06:39:16;7.27;;;6.43;;
3259;SDS011;68938;48.150;14.004;2023-11-18T06:41:43;5.53;;;5.13;;
3259;SDS011;68938;48.150;14.004;2023-11-18T06:44:10;6.33;;;5.73;;
3259;SDS011;68938;48.150;14.004;2023-11-18T06:46:37;5.70;;;5.30;;
3259;SDS011;68938;48.150;14.004;2023-11-18T06:49:05;5.53;;;5.00;;
3259;SDS011;68938;48.150;14.004;2023-11-18T06:51:33;6.10;;;5.60;;
3259;SDS011;68938;48.150;14.004;2023-11-18T06:54:06;6.23;;;5.67;;
3259;SDS011;68938;48.150;14.004;2023-11-18T06:56:34;5.63;;;5.10;;
3259;SDS011;68938;48.150;14.004;2023-11-18T06:59:04;4.80;;;4.40;;
3259;SDS011;68938;48.150;14.004;2023-11-18T07:01:33;4.87;;;4.47;;
3259;SDS011;68938;48.150;14.004;2023-11-18T07:04:03;5.93;;;5.43;;
3259;SDS011;68938;48.150;14.004;2023-11-18T07:06:30;5.30;;;4.93;;
3259;SDS011;68938;48.150;14.004;2023-11-18T07:08:57;5.87;;;5.20;;
3259;SDS011;68938;48.150;14.004;2023-11-18T07:11:24;6.00;;;5.50;;
3259;SDS011;68938;48.150;14.004;2023-11-18T07:13:51;6.20;;;5.20;;
3259;SDS011;68938;48.150;14.004;2023-11-18T07:16:18;6.17;;;5.40;;
3259;SDS011;68938;48.150;14.004;2023-11-18T07:18:45;5.50;;;5.00;;
3259;SDS011;68938;48.150;14.004;2023-11-18T07:21:12;6.60;;;4.70;;
3259;SDS011;68938;48.150;14.004;2023-11-18T07:23:39;4.87;;;4.47;;
3259;SDS011;68938;48.150;14.004;2023-11-18T07:26:06;5.53;;;5.13;;
3259;SDS011;68938;48.150;14.004;2023-11-18T07:28:33;5.70;;;5.20;;
3259;SDS011;68938;48.150;14.004;2023-11-18T07:31:00;9.47;;;5.33;;
3259;SDS011;68938;48.150;14.004;2023-11-18T07:33:26;5.13;;;4.73;;
3259;SDS011;68938;48.150;14.004;2023-11-18T07:35:53;5.13;;;4.83;;
3259;SDS011;68938;48.150;14.004;2023-11-18T07:38:20;5.47;;;5.07;;
3259;SDS011;68938;48.150;14.004;2023-11-18T07:40:47;5.00;;;4.60;;
3259;SDS011;68938;48.150;14.004;2023-11-18T07:43:14;5.17;;;4.87;;
3259;SDS011;68938;48.150;14.004;2023-11-18T07:45:42;5.33;;;4.93;;
3259;SDS011;68938;48.150;14.004;2023-11-18T07:48:09;5.17;;;4.70;;
3259;SDS011;68938;48.150;14.004;2023-11-18T07:50:38;5.47;;;4.97;;
3259;SDS011;68938;48.150;14.004;2023-11-18T07:53:06;5.30;;;4.80;;
3259;SDS011;68938;48.150;14.004;2023-11-18T07:55:34;3.50;;;3.40;;
3259;SDS011;68938;48.150;14.004;2023-11-18T07:58:01;5.80;;;5.40;;
3259;SDS011;68938;48.150;14.004;2023-11-18T08:00:28;4.20;;;3.80;;
3259;SDS011;68938;48.150;14.004;2023-11-18T08:02:55;5.03;;;4.33;;
3259;SDS011;68938;48.150;14.004;2023-11-18T08:05:22;4.37;;;4.07;;
3259;SDS011;68938;48.150;14.004;2023-11-18T08:07:49;4.70;;;4.40;;
3259;SDS011;68938;48.150;14.004;2023-11-18T08:10:16;4.80;;;4.40;;
3259;SDS011;68938;48.150;14.004;2023-11-18T08:12:43;4.37;;;4.07;;
3259;SDS011;68938;48.150;14.004;2023-11-18T08:15:10;5.03;;;4.53;;
3259;SDS011;68938;48.150;14.004;2023-11-18T08:17:37;4.40;;;4.10;;
3259;SDS011;68938;48.150;14.004;2023-11-18T08:20:04;5.30;;;4.87;;
3259;SDS011;68938;48.150;14.004;2023-11-18T08:22:31;4.47;;;4.23;;
3259;SDS011;68938;48.150;14.004;2023-11-18T08:24:58;3.30;;;3.10;;
3259;SDS011;68938;48.150;14.004;2023-11-18T08:27:25;4.50;;;4.20;;
3259;SDS011;68938;48.150;14.004;2023-11-18T08:29:52;4.00;;;3.80;;
3259;SDS011;68938;48.150;14.004;2023-11-18T08:32:19;4.67;;;4.37;;
3259;SDS011;68938;48.150;14.004;2023-11-18T08:34:46;3.83;;;3.63;;
3259;SDS011;68938;48.150;14.004;2023-11-18T08:37:17;4.20;;;3.90;;
3259;SDS011;68938;48.150;14.004;2023-11-18T08:39:44;4.80;;;4.40;;
3259;SDS011;68938;48.150;14.004;2023-11-18T08:42:11;3.40;;;3.20;;
3259;SDS011;68938;48.150;14.004;2023-11-18T08:44:38;3.93;;;3.63;;
3259;SDS011;68938;48.150;14.004;2023-11-18T08:47:05;4.90;;;4.50;;
3259;SDS011;68938;48.150;14.004;2023-11-18T08:49:31;4.40;;;3.97;;
3259;SDS011;68938;48.150;14.004;2023-11-18T08:51:58;4.97;;;4.57;;
3259;SDS011;68938;48.150;14.004;2023-11-18T08:54:25;5.10;;;4.70;;
3259;SDS011;68938;48.150;14.004;2023-11-18T08:56:52;4.63;;;3.50;;
3259;SDS011;68938;48.150;14.004;2023-11-18T08:59:20;4.50;;;4.23;;
3259;SDS011;68938;48.150;14.004;2023-11-18T09:01:47;4.40;;;4.20;;
3259;SDS011;68938;48.150;14.004;2023-11-18T09:04:14;4.50;;;4.13;;
3259;SDS011;68938;48.150;14.004;2023-11-18T09:06:41;4.70;;;4.40;;
3259;SDS011;68938;48.150;14.004;2023-11-18T09:09:08;4.57;;;4.27;;
3259;SDS011;68938;48.150;14.004;2023-11-18T09:11:35;4.93;;;4.60;;
3259;SDS011;68938;48.150;14.004;2023-11-18T09:14:02;5.00;;;4.50;;
3259;SDS011;68938;48.150;14.004;2023-11-18T09:16:29;5.43;;;4.93;;
3259;SDS011;68938;48.150;14.004;2023-11-18T09:18:57;3.90;;;3.60;;
3259;SDS011;68938;48.150;14.004;2023-11-18T09:21:24;5.50;;;5.00;;
3259;SDS011;68938;48.150;14.004;2023-11-18T09:23:52;4.83;;;4.43;;
3259;SDS011;68938;48.150;14.004;2023-11-18T09:26:19;4.30;;;4.00;;
3259;SDS011;68938;48.150;14.004;2023-11-18T09:28:46;5.20;;;4.80;;
3259;SDS011;68938;48.150;14.004;2023-11-18T09:31:13;4.10;;;3.90;;
3259;SDS011;68938;48.150;14.004;2023-11-18T09:33:40;4.90;;;4.60;;
3259;SDS011;68938;48.150;14.004;2023-11-18T09:36:08;5.40;;;4.97;;
3259;SDS011;68938;48.150;14.004;2023-11-18T09:38:36;4.27;;;3.97;;
3259;SDS011;68938;48.150;14.004;2023-11-18T09:41:05;5.40;;;5.00;;
3259;SDS011;68938;48.150;14.004;2023-11-18T09:43:35;7.10;;;5.60;;
3259;SDS011;68938;48.150;14.004;2023-11-18T09:46:10;5.60;;;5.20;;
3259;SDS011;68938;48.150;14.004;2023-11-18T09:48:47;4.40;;;4.10;;
3259;SDS011;68938;48.150;14.004;2023-11-18T09:51:23;5.07;;;4.67;;
3259;SDS011;68938;48.150;14.004;2023-11-18T09:53:52;5.93;;;5.43;;
3259;SDS011;68938;48.150;14.004;2023-11-18T09:59:44;5.53;;;5.13;;
3259;SDS011;68938;48.150;14.004;2023-11-18T10:02:24;5.60;;;5.10;;
3259;SDS011;68938;48.150;14.004;2023-11-18T10:04:52;5.23;;;4.73;;
3259;SDS011;68938;48.150;14.004;2023-11-18T10:07:20;5.30;;;5.00;;
3259;SDS011;68938;48.150;14.004;2023-11-18T10:09:49;5.40;;;5.00;;
3259;SDS011;68938;48.150;14.004;2023-11-18T10:12:16;5.10;;;4.70;;
3259;SDS011;68938;48.150;14.004;2023-11-18T10:14:43;4.40;;;4.10;;
3259;SDS011;68938;48.150;14.004;2023-11-18T10:17:10;4.50;;;4.20;;
3259;SDS011;68938;48.150;14.004;2023-11-18T10:22:24;4.73;;;4.43;;
3259;SDS011;68938;48.150;14.004;2023-11-18T10:24:56;5.90;;;5.40;;
3259;SDS011;68938;48.150;14.004;2023-11-18T10:27:24;5.20;;;4.80;;
3259;SDS011;68938;48.150;14.004;2023-11-18T10:29:57;3.83;;;3.63;;
3259;SDS011;68938;48.150;14.004;2023-11-18T10:32:29;6.10;;;5.53;;
3259;SDS011;68938;48.150;14.004;2023-11-18T10:34:57;4.47;;;4.13;;
3259;SDS011;68938;48.150;14.004;2023-11-18T10:37:25;4.67;;;4.30;;
3259;SDS011;68938;48.150;14.004;2023-11-18T10:39:52;4.60;;;4.30;;
3259;SDS011;68938;48.150;14.004;2023-11-18T10:42:19;4.90;;;4.57;;
3259;SDS011;68938;48.150;14.004;2023-11-18T10:44:56;5.60;;;4.23;;
3259;SDS011;68938;48.150;14.004;2023-11-18T10:47:25;4.90;;;4.50;;
3259;SDS011;68938;48.150;14.004;2023-11-18T10:49:53;5.30;;;4.80;;
3259;SDS011;68938;48.150;14.004;2023-11-18T10:52:21;6.23;;;5.00;;
3259;SDS011;68938;48.150;14.004;2023-11-18T10:54:52;5.60;;;5.20;;
3259;SDS011;68938;48.150;14.004;2023-11-18T10:57:20;7.07;;;6.47;;
3259;SDS011;68938;48.150;14.004;2023-11-18T11:00:04;7.20;;;6.60;;
3259;SDS011;68938;48.150;14.004;2023-11-18T11:02:34;4.60;;;4.30;;
3259;SDS011;68938;48.150;14.004;2023-11-18T11:05:01;5.97;;;5.57;;
3259;SDS011;68938;48.150;14.004;2023-11-18T11:07:29;5.50;;;5.20;;
3259;SDS011;68938;48.150;14.004;2023-11-18T11:09:59;5.13;;;4.73;;
3259;SDS011;68938;48.150;14.004;2023-11-18T11:12:26;5.13;;;4.63;;
3259;SDS011;68938;48.150;14.004;2023-11-18T11:15:11;5.47;;;4.97;;
3259;SDS011;68938;48.150;14.004;2023-11-18T11:17:39;5.37;;;4.80;;
3259;SDS011;68938;48.150;14.004;2023-11-18T11:20:11;4.57;;;4.27;;
3259;SDS011;68938;48.150;14.004;2023-11-18T11:28:49;4.97;;;4.67;;
3259;SDS011;68938;48.150;14.004;2023-11-18T11:31:31;4.60;;;4.20;;
3259;SDS011;68938;48.150;14.004;2023-11-18T11:34:16;4.40;;;4.10;;
3259;SDS011;68938;48.150;14.004;2023-11-18T11:36:49;4.40;;;4.10;;
3259;SDS011;68938;48.150;14.004;2023-11-18T11:39:18;9.37;;;4.60;;
3259;SDS011;68938;48.150;14.004;2023-11-18T11:41:50;4.23;;;3.93;;
3259;SDS011;68938;48.150;14.004;2023-11-18T11:44:18;3.87;;;3.67;;
3259;SDS011;68938;48.150;14.004;2023-11-18T11:46:48;4.03;;;3.73;;
3259;SDS011;68938;48.150;14.004;2023-11-18T11:49:16;4.07;;;3.87;;
3259;SDS011;68938;48.150;14.004;2023-11-18T11:51:45;5.30;;;4.80;;
3259;SDS011;68938;48.150;14.004;2023-11-18T11:54:38;5.00;;;4.60;;
3259;SDS011;68938;48.150;14.004;2023-11-18T11:57:10;5.20;;;4.30;;
3259;SDS011;68938;48.150;14.004;2023-11-18T12:02:09;3.93;;;3.63;;
3259;SDS011;68938;48.150;14.004;2023-11-18T12:04:37;4.03;;;3.70;;
3259;SDS011;68938;48.150;14.004;2023-11-18T12:07:05;5.23;;;4.73;;
3259;SDS011;68938;48.150;14.004;2023-11-18T12:09:44;4.50;;;4.10;;
3259;SDS011;68938;48.150;14.004;2023-11-18T12:12:17;4.53;;;4.23;;
3259;SDS011;68938;48.150;14.004;2023-11-18T12:14:51;4.40;;;4.10;;
3259;SDS011;68938;48.150;14.004;2023-11-18T12:17:25;6.00;;;4.40;;
3259;SDS011;68938;48.150;14.004;2023-11-18T12:19:52;5.00;;;4.60;;
3259;SDS011;68938;48.150;14.004;2023-11-18T12:22:19;4.67;;;4.23;;
3259;SDS011;68938;48.150;14.004;2023-11-18T12:32:58;5.40;;;5.00;;
3259;SDS011;68938;48.150;14.004;2023-11-18T12:35:27;5.50;;;5.20;;
3259;SDS011;68938;48.150;14.004;2023-11-18T12:40:50;5.57;;;5.00;;
3259;SDS011;68938;48.150;14.004;2023-11-18T12:43:23;5.63;;;5.13;;
3259;SDS011;68938;48.150;14.004;2023-11-18T12:49:28;8.80;;;7.53;;
3259;SDS011;68938;48.150;14.004;2023-11-18T12:51:55;10.20;;;8.00;;
3259;SDS011;68938;48.150;14.004;2023-11-18T12:54:23;6.57;;;5.97;;
3259;SDS011;68938;48.150;14.004;2023-11-18T12:56:54;6.37;;;5.27;;
3259;SDS011;68938;48.150;14.004;2023-11-18T12:59:22;6.67;;;6.07;;
3259;SDS011;68938;48.150;14.004;2023-11-18T13:01:51;6.73;;;6.23;;
3259;SDS011;68938;48.150;14.004;2023-11-18T13:04:19;6.87;;;6.27;;
3259;SDS011;68938;48.150;14.004;2023-11-18T13:06:46;6.30;;;5.80;;
3259;SDS011;68938;48.150;14.004;2023-11-18T13:09:14;7.40;;;6.70;;
3259;SDS011;68938;48.150;14.004;2023-11-18T13:11:41;9.00;;;8.20;;
3259;SDS011;68938;48.150;14.004;2023-11-18T13:14:09;7.10;;;6.60;;
3259;SDS011;68938;48.150;14.004;2023-11-18T13:16:36;6.67;;;6.07;;
3259;SDS011;68938;48.150;14.004;2023-11-18T13:19:03;6.17;;;5.67;;
3259;SDS011;68938;48.150;14.004;2023-11-18T13:21:30;5.83;;;5.33;;
3259;SDS011;68938;48.150;14.004;2023-11-18T13:24:00;6.27;;;5.87;;
3259;SDS011;68938;48.150;14.004;2023-11-18T13:26:27;6.23;;;5.80;;
3259;SDS011;68938;48.150;14.004;2023-11-18T13:28:54;6.10;;;5.60;;
3259;SDS011;68938;48.150;14.004;2023-11-18T13:31:21;5.80;;;5.30;;
3259;SDS011;68938;48.150;14.004;2023-11-18T13:33:49;6.03;;;5.57;;
3259;SDS011;68938;48.150;14.004;2023-11-18T13:36:16;4.97;;;4.57;;
3259;SDS011;68938;48.150;14.004;2023-11-18T13:38:43;6.73;;;6.03;;
3259;SDS011;68938;48.150;14.004;2023-11-18T13:41:10;9.47;;;8.40;;
3259;SDS011;68938;48.150;14.004;2023-11-18T13:43:43;6.80;;;6.20;;
3259;SDS011;68938;48.150;14.004;2023-11-18T13:46:12;6.30;;;5.90;;
3259;SDS011;68938;48.150;14.004;2023-11-18T13:48:40;6.60;;;6.00;;
3259;SDS011;68938;48.150;14.004;2023-11-18T13:51:08;7.43;;;6.87;;
3259;SDS011;68938;48.150;14.004;2023-11-18T13:53:37;8.50;;;7.07;;
3259;SDS011;68938;48.150;14.004;2023-11-18T13:56:04;10.53;;;9.00;;
3259;SDS011;68938;48.150;14.004;2023-11-18T13:58:32;8.50;;;7.57;;
3259;SDS011;68938;48.150;14.004;2023-11-18T14:00:59;8.70;;;7.37;;
3259;SDS011;68938;48.150;14.004;2023-11-18T14:03:26;9.00;;;8.20;;
3259;SDS011;68938;48.150;14.004;2023-11-18T14:05:57;7.23;;;6.63;;
3259;SDS011;68938;48.150;14.004;2023-11-18T14:08:25;9.87;;;8.97;;
3259;SDS011;68938;48.150;14.004;2023-11-18T14:10:52;9.33;;;8.53;;
3259;SDS011;68938;48.150;14.004;2023-11-18T14:13:28;11.00;;;8.87;;
3259;SDS011;68938;48.150;14.004;2023-11-18T14:15:56;10.33;;;8.03;;
3259;SDS011;68938;48.150;14.004;2023-11-18T14:18:24;11.47;;;10.30;;
3259;SDS011;68938;48.150;14.004;2023-11-18T14:20:51;10.30;;;9.30;;
3259;SDS011;68938;48.150;14.004;2023-11-18T14:23:19;11.00;;;9.90;;
3259;SDS011;68938;48.150;14.004;2023-11-18T14:25:46;9.93;;;9.03;;
3259;SDS011;68938;48.150;14.004;2023-11-18T14:28:12;11.23;;;9.07;;
3259;SDS011;68938;48.150;14.004;2023-11-18T14:30:40;11.67;;;10.60;;
3259;SDS011;68938;48.150;14.004;2023-11-18T14:33:07;10.23;;;9.17;;
3259;SDS011;68938;48.150;14.004;2023-11-18T14:35:35;13.13;;;11.10;;
3259;SDS011;68938;48.150;14.004;2023-11-18T14:38:02;11.37;;;9.97;;
3259;SDS011;68938;48.150;14.004;2023-11-18T14:40:29;10.97;;;9.87;;
3259;SDS011;68938;48.150;14.004;2023-11-18T14:42:56;10.80;;;9.70;;
3259;SDS011;68938;48.150;14.004;2023-11-18T14:45:24;11.13;;;10.03;;
3259;SDS011;68938;48.150;14.004;2023-11-18T14:47:51;9.97;;;9.17;;
3259;SDS011;68938;48.150;14.004;2023-11-18T14:50:21;10.57;;;9.57;;
3259;SDS011;68938;48.150;14.004;2023-11-18T14:52:48;11.63;;;10.53;;
3259;SDS011;68938;48.150;14.004;2023-11-18T14:55:18;9.40;;;8.60;;
3259;SDS011;68938;48.150;14.004;2023-11-18T14:57:45;10.53;;;9.43;;
3259;SDS011;68938;48.150;14.004;2023-11-18T15:00:12;9.93;;;9.10;;
3259;SDS011;68938;48.150;14.004;2023-11-18T15:02:39;9.10;;;8.30;;
3259;SDS011;68938;48.150;14.004;2023-11-18T15:05:06;9.80;;;8.90;;
3259;SDS011;68938;48.150;14.004;2023-11-18T15:07:33;9.80;;;8.80;;
3259;SDS011;68938;48.150;14.004;2023-11-18T15:10:00;12.73;;;8.53;;
3259;SDS011;68938;48.150;14.004;2023-11-18T15:12:27;10.10;;;9.10;;
3259;SDS011;68938;48.150;14.004;2023-11-18T15:14:54;10.33;;;9.23;;
3259;SDS011;68938;48.150;14.004;2023-11-18T15:17:21;9.63;;;8.47;;
3259;SDS011;68938;48.150;14.004;2023-11-18T15:19:48;9.40;;;8.60;;
3259;SDS011;68938;48.150;14.004;2023-11-18T15:22:15;8.77;;;8.00;;